Time;durP1;ratioP1;P1;durP2;ratioP2;P2;SDS_P1;SDS_P2;PMS_P1;PMS_P2;Temp;Humidity;BMP_temperature;BMP_pressure;BME280_temperature;BME280_humidity;BME280_pressure;Samples;Min_cycle;Max_cycle;Signal;HPM_P1;HPM_P2
2021/09/15 00:01:30;;;;;;;7.13;6.63;;;;;;;;;;5011851;28;20764;-73
2021/09/15 00:03:56;;;;;;;8.80;7.20;;;;;;;;;;5022698;28;20409;-73
2021/09/15 00:06:22;;;;;;;7.53;6.90;;;;;;;;;;5013138;28;20430;-73
2021/09/15 00:08:48;;;;;;;7.27;6.57;;;;;;;;;;5013076;28;20414;-72
2021/09/15 00:11:17;;;;;;;7.40;5.97;;;;;;;;;;5013144;28;20446;-75
2021/09/15 00:13:43;;;;;;;6.87;6.27;;;;;;;;;;5013417;28;20464;-74
2021/09/15 00:16:09;;;;;;;7.50;6.80;;;;;;;;;;5013496;28;20744;-73
2021/09/15 00:18:35;;;;;;;7.17;6.47;;;;;;;;;;5012745;28;20571;-73
2021/09/15 00:21:02;;;;;;;7.27;6.67;;;;;;;;;;5013075;28;20437;-74
2021/09/15 00:23:28;;;;;;;10.87;7.30;;;;;;;;;;5011636;28;20424;-74
2021/09/15 00:25:54;;;;;;;7.73;7.03;;;;;;;;;;5013224;28;20417;-71
2021/09/15 00:28:20;;;;;;;7.63;7.03;;;;;;;;;;5012644;28;20436;-75
2021/09/15 00:30:46;;;;;;;7.90;6.93;;;;;;;;;;5024349;28;20437;-73
2021/09/15 00:33:12;;;;;;;7.80;7.00;;;;;;;;;;5013017;28;20433;-73
2021/09/15 00:35:38;;;;;;;8.70;7.33;;;;;;;;;;5012742;28;20418;-73
2021/09/15 00:38:04;;;;;;;7.80;7.20;;;;;;;;;;5012430;28;20459;-73
2021/09/15 00:40:30;;;;;;;7.73;6.77;;;;;;;;;;5012910;28;20528;-73
2021/09/15 00:42:56;;;;;;;8.17;7.37;;;;;;;;;;5013236;28;20409;-73
2021/09/15 00:45:22;;;;;;;6.87;6.27;;;;;;;;;;5024869;28;20412;-73
2021/09/15 00:47:48;;;;;;;7.37;6.77;;;;;;;;;;5032175;28;20443;-74
2021/09/15 00:50:15;;;;;;;8.53;7.40;;;;;;;;;;5032805;28;20779;-73
2021/09/15 00:52:41;;;;;;;7.60;6.90;;;;;;;;;;5032502;28;20423;-74
2021/09/15 00:55:07;;;;;;;8.60;6.97;;;;;;;;;;5031849;28;20417;-73
2021/09/15 00:57:33;;;;;;;16.63;7.40;;;;;;;;;;5015893;28;20453;-72
2021/09/15 00:59:59;;;;;;;7.60;6.90;;;;;;;;;;5016366;28;20425;-73
2021/09/15 01:02:25;;;;;;;7.33;6.63;;;;;;;;;;5024354;28;20880;-72
2021/09/15 01:04:51;;;;;;;8.13;7.17;;;;;;;;;;5016301;28;20409;-73
2021/09/15 01:07:18;;;;;;;7.57;6.97;;;;;;;;;;5015707;28;20882;-73
2021/09/15 01:09:44;;;;;;;7.87;7.07;;;;;;;;;;5016303;28;20829;-72
2021/09/15 01:12:12;;;;;;;7.50;6.83;;;;;;;;;;5016070;28;20550;-73
2021/09/15 01:14:39;;;;;;;8.97;7.10;;;;;;;;;;5016419;28;20437;-72
2021/09/15 01:17:05;;;;;;;8.13;7.33;;;;;;;;;;5015735;28;20809;-73
2021/09/15 01:19:31;;;;;;;7.77;6.70;;;;;;;;;;5015986;28;20425;-73
2021/09/15 01:21:57;;;;;;;9.30;7.20;;;;;;;;;;5016005;28;20475;-73
2021/09/15 01:24:24;;;;;;;13.43;6.90;;;;;;;;;;5016095;28;20417;-72
2021/09/15 01:26:53;;;;;;;8.93;8.03;;;;;;;;;;5015555;28;20441;-73
2021/09/15 01:29:24;;;;;;;9.50;7.40;;;;;;;;;;5022664;28;20439;-73
2021/09/15 01:31:57;;;;;;;9.63;7.77;;;;;;;;;;5020197;28;20402;-73
2021/09/15 01:34:23;;;;;;;7.60;6.97;;;;;;;;;;5016405;28;20472;-73
2021/09/15 01:36:49;;;;;;;8.97;7.00;;;;;;;;;;5015400;28;20413;-74
2021/09/15 01:39:15;;;;;;;8.10;7.30;;;;;;;;;;5015844;28;20429;-73
2021/09/15 01:41:42;;;;;;;7.53;6.83;;;;;;;;;;5015845;28;20479;-72
2021/09/15 01:44:08;;;;;;;8.57;7.77;;;;;;;;;;5017266;28;20500;-74
2021/09/15 01:46:34;;;;;;;7.37;6.77;;;;;;;;;;5035057;28;20453;-73
2021/09/15 01:49:00;;;;;;;8.20;7.50;;;;;;;;;;5035410;28;20423;-74
2021/09/15 01:51:26;;;;;;;7.80;7.10;;;;;;;;;;5018070;28;20818;-72
2021/09/15 01:53:52;;;;;;;8.20;7.50;;;;;;;;;;5015532;28;20418;-72
2021/09/15 01:56:18;;;;;;;8.93;8.20;;;;;;;;;;5015185;28;20790;-73
2021/09/15 01:58:44;;;;;;;10.67;7.90;;;;;;;;;;5015214;28;20465;-73
2021/09/15 02:01:10;;;;;;;8.40;7.60;;;;;;;;;;5015295;28;20905;-75
2021/09/15 02:03:36;;;;;;;10.40;7.73;;;;;;;;;;5023144;28;20409;-72
2021/09/15 02:06:02;;;;;;;8.73;7.63;;;;;;;;;;5014950;28;20568;-72
2021/09/15 02:08:28;;;;;;;8.37;7.60;;;;;;;;;;5014768;28;20417;-72
2021/09/15 02:10:54;;;;;;;8.53;7.83;;;;;;;;;;5015185;28;20497;-72
2021/09/15 02:13:20;;;;;;;9.27;8.20;;;;;;;;;;5015099;28;20422;-73
2021/09/15 02:15:46;;;;;;;8.47;7.77;;;;;;;;;;5015083;28;20902;-73
2021/09/15 02:18:12;;;;;;;9.10;8.30;;;;;;;;;;5014877;28;20806;-73
2021/09/15 02:20:39;;;;;;;9.03;8.13;;;;;;;;;;5014916;28;20767;-73
2021/09/15 02:23:05;;;;;;;9.97;8.53;;;;;;;;;;5015049;28;20495;-73
2021/09/15 02:25:31;;;;;;;8.33;7.67;;;;;;;;;;5014919;28;20413;-74
2021/09/15 02:27:57;;;;;;;9.40;8.40;;;;;;;;;;5014837;28;20552;-73
2021/09/15 02:30:23;;;;;;;10.20;8.93;;;;;;;;;;5030243;28;20904;-72
2021/09/15 02:32:49;;;;;;;9.90;8.90;;;;;;;;;;5034544;28;20953;-73
2021/09/15 02:35:15;;;;;;;9.57;8.77;;;;;;;;;;5034778;28;20412;-73
2021/09/15 02:37:41;;;;;;;9.30;8.40;;;;;;;;;;5034262;28;20467;-73
2021/09/15 02:40:08;;;;;;;8.93;8.03;;;;;;;;;;5034168;28;20833;-73
2021/09/15 02:42:34;;;;;;;12.33;9.10;;;;;;;;;;5034375;28;20409;-73
2021/09/15 02:45:00;;;;;;;8.03;7.43;;;;;;;;;;5034217;28;20420;-73
2021/09/15 02:47:26;;;;;;;9.60;8.70;;;;;;;;;;5021722;28;20822;-73
2021/09/15 02:49:52;;;;;;;9.90;8.90;;;;;;;;;;5013093;28;20450;-73
2021/09/15 02:52:18;;;;;;;10.37;9.40;;;;;;;;;;5014478;28;20429;-73
2021/09/15 02:54:44;;;;;;;10.30;9.30;;;;;;;;;;5014504;28;20974;-73
2021/09/15 02:57:10;;;;;;;8.90;8.10;;;;;;;;;;5014000;28;20508;-73
2021/09/15 02:59:35;;;;;;;10.43;9.50;;;;;;;;;;5014276;28;20465;-73
2021/09/15 03:02:02;;;;;;;9.27;8.37;;;;;;;;;;5017489;28;20420;-73
2021/09/15 03:04:28;;;;;;;9.40;8.40;;;;;;;;;;5017627;28;20417;-73
2021/09/15 03:06:54;;;;;;;12.10;9.47;;;;;;;;;;5014277;28;20515;-72
2021/09/15 03:09:20;;;;;;;10.20;9.20;;;;;;;;;;5014534;28;20429;-73
2021/09/15 03:11:46;;;;;;;10.13;9.10;;;;;;;;;;5014747;28;20412;-73
2021/09/15 03:14:12;;;;;;;11.10;9.70;;;;;;;;;;5014073;28;20413;-72
2021/09/15 03:16:38;;;;;;;9.70;8.90;;;;;;;;;;5013732;28;20413;-72
2021/09/15 03:19:04;;;;;;;10.57;9.47;;;;;;;;;;5013050;28;20976;-73
2021/09/15 03:21:30;;;;;;;13.00;9.93;;;;;;;;;;5014031;28;20500;-72
2021/09/15 03:23:56;;;;;;;11.03;9.50;;;;;;;;;;5013775;28;20536;-73
2021/09/15 03:26:22;;;;;;;10.60;9.60;;;;;;;;;;5013863;28;20409;-72
2021/09/15 03:28:48;;;;;;;11.07;10.07;;;;;;;;;;5015408;28;20413;-72
2021/09/15 03:31:14;;;;;;;12.50;10.90;;;;;;;;;;5021964;28;20491;-71
2021/09/15 03:33:40;;;;;;;12.20;11.00;;;;;;;;;;5013976;28;20838;-73
2021/09/15 03:36:06;;;;;;;12.47;11.17;;;;;;;;;;5013704;28;20905;-73
2021/09/15 03:38:32;;;;;;;13.77;12.37;;;;;;;;;;5013355;28;20468;-72
2021/09/15 03:40:58;;;;;;;13.87;11.50;;;;;;;;;;5014047;28;20445;-73
2021/09/15 03:43:24;;;;;;;12.87;11.57;;;;;;;;;;5013635;28;20886;-73
2021/09/15 03:45:50;;;;;;;13.70;12.30;;;;;;;;;;5028567;28;20484;-71
2021/09/15 03:48:16;;;;;;;13.60;12.17;;;;;;;;;;5018363;28;20428;-72
2021/09/15 03:50:42;;;;;;;14.17;12.43;;;;;;;;;;5033166;28;20468;-72
2021/09/15 03:53:08;;;;;;;14.07;12.67;;;;;;;;;;5033097;28;20432;-72
2021/09/15 03:55:34;;;;;;;13.77;12.30;;;;;;;;;;5027562;28;20478;-72
2021/09/15 03:58:00;;;;;;;14.40;13.00;;;;;;;;;;5012817;28;20846;-74
2021/09/15 04:00:26;;;;;;;15.50;13.10;;;;;;;;;;5013470;28;20439;-73
2021/09/15 04:02:52;;;;;;;14.07;11.67;;;;;;;;;;5019852;28;20420;-73
2021/09/15 04:05:18;;;;;;;14.60;12.87;;;;;;;;;;5013157;28;20413;-73
2021/09/15 04:07:44;;;;;;;13.60;11.60;;;;;;;;;;5012884;28;20420;-73
2021/09/15 04:10:10;;;;;;;12.83;11.60;;;;;;;;;;5013511;28;20582;-73
2021/09/15 04:12:36;;;;;;;14.13;12.63;;;;;;;;;;5013102;28;20421;-73
2021/09/15 04:15:03;;;;;;;12.93;11.37;;;;;;;;;;5013404;28;20420;-73
2021/09/15 04:17:29;;;;;;;14.40;12.87;;;;;;;;;;5012566;28;20487;-73
2021/09/15 04:19:55;;;;;;;15.13;13.07;;;;;;;;;;5013192;28;20432;-73
2021/09/15 04:22:21;;;;;;;14.03;11.90;;;;;;;;;;5013262;28;20417;-73
2021/09/15 04:33:03;;;;;;;17.50;13.17;;;;;;;;;;5017185;28;20411;-73
2021/09/15 04:35:29;;;;;;;14.43;13.03;;;;;;;;;;5016746;28;20407;-73
2021/09/15 04:37:55;;;;;;;15.53;13.57;;;;;;;;;;5016593;28;20525;-73
2021/09/15 04:40:21;;;;;;;17.37;12.87;;;;;;;;;;5015499;28;20854;-73
2021/09/15 04:42:47;;;;;;;14.80;13.30;;;;;;;;;;5016831;28;20420;-73
2021/09/15 04:45:13;;;;;;;14.30;12.77;;;;;;;;;;5026913;28;20461;-73
2021/09/15 04:47:39;;;;;;;14.47;12.57;;;;;;;;;;5036115;28;20407;-72
2021/09/15 04:50:06;;;;;;;18.30;13.07;;;;;;;;;;5034817;28;20442;-73
2021/09/15 04:52:32;;;;;;;14.03;12.67;;;;;;;;;;5036833;28;20770;-73
2021/09/15 04:54:57;;;;;;;14.90;13.30;;;;;;;;;;5035671;28;20766;-73
2021/09/15 04:57:23;;;;;;;14.33;12.83;;;;;;;;;;5016332;28;20460;-73
2021/09/15 04:59:49;;;;;;;15.00;13.50;;;;;;;;;;5016332;28;20553;-73
2021/09/15 05:02:15;;;;;;;14.07;12.60;;;;;;;;;;5023344;28;20406;-73
2021/09/15 05:04:41;;;;;;;14.47;13.03;;;;;;;;;;5016190;28;20468;-73
2021/09/15 05:07:09;;;;;;;15.10;13.63;;;;;;;;;;5015914;28;20941;-73
2021/09/15 05:09:35;;;;;;;14.40;12.73;;;;;;;;;;5022646;28;20519;-73
2021/09/15 05:12:01;;;;;;;14.60;13.10;;;;;;;;;;5035941;28;20443;-73
2021/09/15 05:14:27;;;;;;;15.73;13.00;;;;;;;;;;5035852;28;20814;-73
2021/09/15 05:16:53;;;;;;;14.80;12.60;;;;;;;;;;5035515;28;20446;-73
2021/09/15 05:19:19;;;;;;;16.13;12.50;;;;;;;;;;5035859;28;20462;-73
2021/09/15 05:21:45;;;;;;;13.70;12.30;;;;;;;;;;5035677;28;20778;-73
2021/09/15 05:24:11;;;;;;;15.83;12.87;;;;;;;;;;5035786;28;20423;-74
2021/09/15 05:26:37;;;;;;;15.90;13.70;;;;;;;;;;5035607;28;20424;-75
2021/09/15 05:29:03;;;;;;;13.67;12.23;;;;;;;;;;5035778;28;20885;-74
2021/09/15 05:31:29;;;;;;;15.30;13.70;;;;;;;;;;5022777;28;20409;-74
2021/09/15 05:33:55;;;;;;;13.50;12.17;;;;;;;;;;5015784;28;20413;-74
2021/09/15 05:36:21;;;;;;;15.63;12.17;;;;;;;;;;5015786;28;20952;-72
2021/09/15 05:38:47;;;;;;;19.00;12.30;;;;;;;;;;5015259;28;20510;-72
2021/09/15 05:41:13;;;;;;;12.57;11.30;;;;;;;;;;5015304;28;20443;-73
2021/09/15 05:43:39;;;;;;;14.80;12.43;;;;;;;;;;5015788;28;20408;-72
2021/09/15 05:46:05;;;;;;;13.23;11.80;;;;;;;;;;5026191;28;20890;-72
2021/09/15 05:48:31;;;;;;;14.20;12.67;;;;;;;;;;5013987;28;20417;-74
2021/09/15 05:50:57;;;;;;;13.87;12.33;;;;;;;;;;5017168;28;20435;-74
2021/09/15 05:53:23;;;;;;;16.20;12.73;;;;;;;;;;5015577;28;20412;-72
2021/09/15 05:55:49;;;;;;;14.87;13.27;;;;;;;;;;5015254;28;20418;-73
2021/09/15 05:58:17;;;;;;;14.97;13.07;;;;;;;;;;5014918;28;20459;-73
2021/09/15 06:00:43;;;;;;;17.43;12.87;;;;;;;;;;5015073;28;20428;-73
2021/09/15 06:03:09;;;;;;;14.20;12.80;;;;;;;;;;5022688;28;20420;-73
2021/09/15 06:05:36;;;;;;;14.03;12.53;;;;;;;;;;5013791;28;20575;-73
2021/09/15 06:08:02;;;;;;;14.57;12.87;;;;;;;;;;5014822;28;20409;-73
2021/09/15 06:10:28;;;;;;;13.90;12.50;;;;;;;;;;5015434;28;20441;-73
2021/09/15 06:12:54;;;;;;;14.30;12.80;;;;;;;;;;5015122;28;20416;-73
2021/09/15 06:15:20;;;;;;;15.63;14.03;;;;;;;;;;5014837;28;20416;-73
2021/09/15 06:17:46;;;;;;;15.03;13.53;;;;;;;;;;5014637;28;20467;-74
2021/09/15 06:20:12;;;;;;;14.60;13.10;;;;;;;;;;5015083;28;20539;-72
2021/09/15 06:22:38;;;;;;;15.20;13.70;;;;;;;;;;5010135;28;20858;-74
2021/09/15 06:25:05;;;;;;;15.50;13.93;;;;;;;;;;5012549;28;20452;-73
2021/09/15 06:27:31;;;;;;;18.30;14.87;;;;;;;;;;5011171;28;20447;-74
2021/09/15 06:29:57;;;;;;;15.27;13.77;;;;;;;;;;5015373;28;20456;-72
2021/09/15 06:32:25;;;;;;;15.53;13.73;;;;;;;;;;5013693;28;20835;-72
2021/09/15 06:34:51;;;;;;;15.23;13.63;;;;;;;;;;5020255;28;20854;-72
2021/09/15 06:37:17;;;;;;;18.60;14.60;;;;;;;;;;5025088;28;20458;-73
2021/09/15 06:39:44;;;;;;;21.00;14.90;;;;;;;;;;5022036;28;20780;-73
2021/09/15 06:42:11;;;;;;;19.17;15.30;;;;;;;;;;5013703;28;20958;-73
2021/09/15 06:44:37;;;;;;;16.67;14.60;;;;;;;;;;5015602;28;20414;-73
2021/09/15 06:47:03;;;;;;;21.07;15.30;;;;;;;;;;5010514;28;20861;-73
2021/09/15 06:49:29;;;;;;;14.50;13.00;;;;;;;;;;5010464;28;20551;-73
2021/09/15 06:51:55;;;;;;;16.27;14.57;;;;;;;;;;5010360;28;20498;-73
2021/09/15 06:54:21;;;;;;;16.27;14.63;;;;;;;;;;5008636;28;20484;-73
2021/09/15 06:56:47;;;;;;;16.17;14.07;;;;;;;;;;5010323;28;20445;-73
2021/09/15 06:59:13;;;;;;;15.70;14.10;;;;;;;;;;5010587;28;21012;-73
2021/09/15 07:01:39;;;;;;;16.00;14.50;;;;;;;;;;5010568;28;20417;-72
2021/09/15 07:04:05;;;;;;;19.37;13.97;;;;;;;;;;5010637;28;20448;-73
2021/09/15 07:06:32;;;;;;;14.00;12.70;;;;;;;;;;5010025;28;20456;-73
2021/09/15 07:08:58;;;;;;;13.60;12.20;;;;;;;;;;5011972;28;20783;-73
2021/09/15 07:11:24;;;;;;;13.70;12.40;;;;;;;;;;5010453;28;20427;-73
2021/09/15 07:13:50;;;;;;;13.83;11.50;;;;;;;;;;5015198;28;20455;-73
2021/09/15 07:16:16;;;;;;;15.80;12.83;;;;;;;;;;5010185;28;20448;-73
2021/09/15 07:18:42;;;;;;;13.80;12.40;;;;;;;;;;5009743;28;20477;-73
2021/09/15 07:21:08;;;;;;;14.23;12.87;;;;;;;;;;5017256;28;20501;-73
2021/09/15 07:23:34;;;;;;;17.50;13.83;;;;;;;;;;5016789;28;20478;-73
2021/09/15 07:26:00;;;;;;;13.53;12.20;;;;;;;;;;5033933;28;20785;-73
2021/09/15 07:28:26;;;;;;;13.37;12.17;;;;;;;;;;5038246;28;20419;-73
2021/09/15 07:30:52;;;;;;;13.00;11.70;;;;;;;;;;5014735;28;20516;-71
2021/09/15 07:33:18;;;;;;;13.83;12.33;;;;;;;;;;5024159;28;20422;-72
2021/09/15 07:35:44;;;;;;;13.47;12.20;;;;;;;;;;5009859;28;20433;-72
2021/09/15 07:38:10;;;;;;;14.00;12.70;;;;;;;;;;5009448;28;20564;-73
2021/09/15 07:40:36;;;;;;;13.60;12.20;;;;;;;;;;5009584;28;20556;-72
2021/09/15 07:43:02;;;;;;;13.03;11.73;;;;;;;;;;5009823;28;20428;-73
2021/09/15 07:45:29;;;;;;;12.80;11.60;;;;;;;;;;5022564;28;20474;-73
2021/09/15 07:47:56;;;;;;;14.13;12.70;;;;;;;;;;5029016;28;20423;-73
2021/09/15 07:50:22;;;;;;;14.30;12.87;;;;;;;;;;5029333;28;20459;-73
2021/09/15 07:52:48;;;;;;;14.07;12.23;;;;;;;;;;5029337;28;20417;-72
2021/09/15 07:55:15;;;;;;;13.43;12.23;;;;;;;;;;5014698;28;20453;-73
2021/09/15 07:57:42;;;;;;;12.60;11.40;;;;;;;;;;5018933;28;20468;-73
2021/09/15 08:00:08;;;;;;;13.77;12.50;;;;;;;;;;5020336;28;20433;-73
2021/09/15 08:02:34;;;;;;;12.97;11.77;;;;;;;;;;5016406;28;20411;-73
2021/09/15 08:05:00;;;;;;;14.17;12.77;;;;;;;;;;5009612;28;20409;-73
2021/09/15 08:07:26;;;;;;;14.87;13.37;;;;;;;;;;5009064;28;20433;-73
2021/09/15 08:09:52;;;;;;;14.93;13.50;;;;;;;;;;5009519;28;20436;-73
2021/09/15 08:12:18;;;;;;;16.10;14.37;;;;;;;;;;5009499;28;20417;-73
2021/09/15 08:14:44;;;;;;;14.77;13.37;;;;;;;;;;5012454;28;20429;-73
2021/09/15 08:17:10;;;;;;;16.77;14.53;;;;;;;;;;5024423;28;20814;-73
2021/09/15 08:19:36;;;;;;;15.27;13.83;;;;;;;;;;5014256;28;20475;-73
2021/09/15 08:22:02;;;;;;;18.50;16.03;;;;;;;;;;5022596;28;20417;-72
2021/09/15 08:24:28;;;;;;;18.30;16.50;;;;;;;;;;5009401;28;20417;-71
2021/09/15 08:26:54;;;;;;;18.97;16.70;;;;;;;;;;5008989;28;20432;-71
2021/09/15 08:29:20;;;;;;;18.63;16.60;;;;;;;;;;5016244;28;20435;-72
2021/09/15 08:31:47;;;;;;;19.43;16.10;;;;;;;;;;5013304;28;20428;-71
2021/09/15 08:34:13;;;;;;;18.37;16.43;;;;;;;;;;5009496;28;20417;-72
2021/09/15 08:36:39;;;;;;;20.30;18.20;;;;;;;;;;5008834;28;20882;-71
2021/09/15 08:39:05;;;;;;;19.70;17.70;;;;;;;;;;5009159;28;20460;-73
2021/09/15 08:41:31;;;;;;;21.87;18.30;;;;;;;;;;5009145;28;20445;-72
2021/09/15 08:43:57;;;;;;;19.97;17.87;;;;;;;;;;5009621;28;21162;-72
2021/09/15 08:46:24;;;;;;;20.73;17.70;;;;;;;;;;5028571;28;20417;-71
2021/09/15 08:48:50;;;;;;;21.90;18.27;;;;;;;;;;5027159;28;20429;-71
2021/09/15 08:51:22;;;;;;;20.03;17.90;;;;;;;;;;5013154;28;20440;-71
2021/09/15 08:53:49;;;;;;;21.07;18.77;;;;;;;;;;5009037;28;20602;-72
2021/09/15 08:56:15;;;;;;;20.80;18.60;;;;;;;;;;5009120;28;20417;-72
2021/09/15 08:58:41;;;;;;;22.13;18.40;;;;;;;;;;5008735;28;20473;-72
2021/09/15 09:01:13;;;;;;;22.53;19.37;;;;;;;;;;5008941;28;20444;-73
2021/09/15 09:03:41;;;;;;;20.60;18.60;;;;;;;;;;5016816;28;20414;-72
2021/09/15 09:06:10;;;;;;;20.50;18.50;;;;;;;;;;5008792;28;20433;-72
2021/09/15 09:08:43;;;;;;;23.00;20.60;;;;;;;;;;5008827;28;20783;-72
2021/09/15 09:11:13;;;;;;;21.23;19.20;;;;;;;;;;5018439;28;20453;-72
2021/09/15 09:13:49;;;;;;;26.60;21.10;;;;;;;;;;5011613;28;20427;-72
2021/09/15 09:16:17;;;;;;;22.53;20.03;;;;;;;;;;5023402;28;20427;-73
2021/09/15 09:19:00;;;;;;;21.63;18.93;;;;;;;;;;5036987;28;20558;-72
2021/09/15 09:21:28;;;;;;;25.47;19.70;;;;;;;;;;5019040;28;20419;-72
2021/09/15 09:23:58;;;;;;;22.67;20.23;;;;;;;;;;5016318;28;20418;-72
2021/09/15 09:26:24;;;;;;;26.17;20.43;;;;;;;;;;5012554;28;20425;-72
2021/09/15 09:28:50;;;;;;;25.10;20.83;;;;;;;;;;5014321;28;20424;-72
2021/09/15 09:31:17;;;;;;;22.93;20.43;;;;;;;;;;5020014;28;20468;-72
2021/09/15 09:33:43;;;;;;;25.27;21.70;;;;;;;;;;5020515;28;21177;-72
2021/09/15 09:36:10;;;;;;;23.80;21.40;;;;;;;;;;5027834;28;20519;-72
2021/09/15 09:38:41;;;;;;;25.47;20.97;;;;;;;;;;5011599;28;20542;-73
2021/09/15 09:41:15;;;;;;;23.90;21.23;;;;;;;;;;5011904;28;21079;-73
2021/09/15 09:43:52;;;;;;;26.17;21.30;;;;;;;;;;5019270;28;20400;-72
2021/09/15 09:46:20;;;;;;;26.53;21.63;;;;;;;;;;5031277;28;20808;-72
2021/09/15 09:48:56;;;;;;;26.00;21.70;;;;;;;;;;5031455;28;20418;-72
2021/09/15 09:51:22;;;;;;;27.83;22.57;;;;;;;;;;5017114;28;20845;-71
2021/09/15 09:53:49;;;;;;;24.20;21.60;;;;;;;;;;5011941;28;20413;-71
2021/09/15 09:56:16;;;;;;;29.47;23.57;;;;;;;;;;5011794;28;20849;-74
2021/09/15 09:58:46;;;;;;;27.60;22.53;;;;;;;;;;5011253;28;20469;-72
2021/09/15 10:01:18;;;;;;;25.10;22.43;;;;;;;;;;5011562;28;20437;-70
2021/09/15 10:03:45;;;;;;;30.80;24.10;;;;;;;;;;5011616;28;20491;-73
2021/09/15 10:06:11;;;;;;;26.43;23.50;;;;;;;;;;5011414;28;20429;-73
2021/09/15 10:08:38;;;;;;;26.10;22.73;;;;;;;;;;5011111;28;21174;-71
2021/09/15 10:11:04;;;;;;;29.37;24.40;;;;;;;;;;5021181;28;20453;-71
2021/09/15 10:13:30;;;;;;;26.40;23.63;;;;;;;;;;5013344;28;20441;-72
2021/09/15 10:15:58;;;;;;;27.23;24.27;;;;;;;;;;5015573;28;20468;-72
2021/09/15 10:18:26;;;;;;;31.20;24.13;;;;;;;;;;5022102;28;20461;-72
2021/09/15 10:20:55;;;;;;;28.10;23.00;;;;;;;;;;5024103;28;20460;-72
2021/09/15 10:23:48;;;;;;;28.30;24.73;;;;;;;;;;5011100;28;20410;-72
2021/09/15 10:26:33;;;;;;;26.10;22.87;;;;;;;;;;5034354;28;20422;-72
2021/09/15 10:29:17;;;;;;;27.80;23.73;;;;;;;;;;5034942;28;20447;-72
2021/09/15 10:31:55;;;;;;;27.23;24.13;;;;;;;;;;5020607;28;20419;-72
2021/09/15 10:34:36;;;;;;;27.73;22.43;;;;;;;;;;5011373;28;20421;-72
2021/09/15 10:37:12;;;;;;;33.53;24.87;;;;;;;;;;5011597;28;20834;-72
2021/09/15 10:39:53;;;;;;;25.10;21.93;;;;;;;;;;5010865;28;20865;-72
2021/09/15 10:42:35;;;;;;;26.80;22.10;;;;;;;;;;5010911;28;21024;-72
2021/09/15 10:45:11;;;;;;;26.53;22.77;;;;;;;;;;5016938;28;20507;-73
2021/09/15 10:47:39;;;;;;;30.33;21.87;;;;;;;;;;5030351;28;20511;-72
2021/09/15 10:50:06;;;;;;;24.80;22.00;;;;;;;;;;5030517;28;20531;-73
2021/09/15 10:52:37;;;;;;;25.83;22.83;;;;;;;;;;5030336;28;20448;-73
2021/09/15 10:55:13;;;;;;;27.50;21.47;;;;;;;;;;5010855;28;20414;-71
2021/09/15 10:57:42;;;;;;;34.10;24.13;;;;;;;;;;5010316;28;20468;-72
2021/09/15 11:00:21;;;;;;;26.40;21.97;;;;;;;;;;5010805;28;20961;-72
2021/09/15 11:02:48;;;;;;;26.50;22.40;;;;;;;;;;5010595;28;20508;-72
2021/09/15 11:05:30;;;;;;;26.17;22.47;;;;;;;;;;5010605;28;20445;-72
2021/09/15 11:07:59;;;;;;;24.23;21.77;;;;;;;;;;5010019;28;20464;-72
2021/09/15 11:10:34;;;;;;;26.57;23.87;;;;;;;;;;5010508;28;20441;-71
2021/09/15 11:13:00;;;;;;;40.80;35.10;;;;;;;;;;5019698;28;20419;-71
2021/09/15 11:15:27;;;;;;;32.13;26.90;;;;;;;;;;5015851;28;20418;-72
2021/09/15 11:17:54;;;;;;;29.80;25.17;;;;;;;;;;5029593;28;21022;-72
2021/09/15 11:20:23;;;;;;;28.60;24.10;;;;;;;;;;5015122;28;20448;-73
2021/09/15 11:22:50;;;;;;;25.93;22.50;;;;;;;;;;5018588;28;20441;-72
2021/09/15 11:25:20;;;;;;;29.40;24.07;;;;;;;;;;5016589;28;20783;-73
2021/09/15 11:28:23;;;;;;;29.50;24.10;;;;;;;;;;5009626;28;20513;-72
2021/09/15 11:30:51;;;;;;;26.13;23.40;;;;;;;;;;5005902;28;20445;-71
2021/09/15 11:33:38;;;;;;;34.10;23.50;;;;;;;;;;5025720;28;20531;-70
2021/09/15 11:36:06;;;;;;;26.50;23.53;;;;;;;;;;5022520;28;20429;-74
2021/09/15 11:38:34;;;;;;;28.27;24.20;;;;;;;;;;5009286;28;20468;-73
2021/09/15 11:41:07;;;;;;;26.17;23.43;;;;;;;;;;5009843;28;20819;-72
2021/09/15 11:43:33;;;;;;;32.07;26.20;;;;;;;;;;5009831;28;20706;-73
2021/09/15 11:45:59;;;;;;;30.60;25.17;;;;;;;;;;5023663;28;20428;-73
2021/09/15 11:48:26;;;;;;;28.93;25.90;;;;;;;;;;5029111;28;20420;-72
2021/09/15 11:50:52;;;;;;;28.50;24.10;;;;;;;;;;5029156;28;20541;-73
2021/09/15 11:53:19;;;;;;;27.40;23.30;;;;;;;;;;5029401;28;20413;-73
2021/09/15 11:55:51;;;;;;;28.03;24.67;;;;;;;;;;5021059;28;20434;-72
2021/09/15 11:58:18;;;;;;;28.47;25.17;;;;;;;;;;5009510;28;20461;-72
2021/09/15 12:00:44;;;;;;;27.17;23.97;;;;;;;;;;5009439;28;20437;-73
2021/09/15 12:03:14;;;;;;;27.30;24.60;;;;;;;;;;5009435;28;20448;-73
2021/09/15 12:05:44;;;;;;;27.30;24.40;;;;;;;;;;5009279;28;20437;-73
2021/09/15 12:08:10;;;;;;;28.70;25.60;;;;;;;;;;5009214;28;20413;-73
2021/09/15 12:10:36;;;;;;;31.20;25.43;;;;;;;;;;5009276;28;20488;-72
2021/09/15 12:13:02;;;;;;;30.63;27.33;;;;;;;;;;5013190;28;20414;-72
2021/09/15 12:15:28;;;;;;;38.23;34.10;;;;;;;;;;5014450;28;20417;-72
2021/09/15 12:17:57;;;;;;;32.30;27.57;;;;;;;;;;5020435;28;20473;-72
2021/09/15 12:20:38;;;;;;;33.27;26.30;;;;;;;;;;5018774;28;20842;-73
2021/09/15 12:23:05;;;;;;;32.57;27.07;;;;;;;;;;5015024;28;20506;-71
2021/09/15 12:25:31;;;;;;;32.77;27.03;;;;;;;;;;5012986;28;20430;-71
2021/09/15 12:28:00;;;;;;;34.00;28.40;;;;;;;;;;5009197;28;21000;-73
2021/09/15 12:30:26;;;;;;;30.47;26.90;;;;;;;;;;5020294;28;20464;-72
2021/09/15 12:32:56;;;;;;;33.27;27.90;;;;;;;;;;5009527;28;20775;-72
2021/09/15 12:35:24;;;;;;;33.73;27.47;;;;;;;;;;5022829;28;20432;-72
2021/09/15 12:37:59;;;;;;;33.53;29.10;;;;;;;;;;5009083;28;20497;-72
2021/09/15 12:40:25;;;;;;;36.93;29.90;;;;;;;;;;5016033;28;20442;-72
2021/09/15 12:42:59;;;;;;;41.83;30.07;;;;;;;;;;5028778;28;20415;-72
2021/09/15 12:45:26;;;;;;;34.10;29.20;;;;;;;;;;5028539;28;20449;-72
2021/09/15 12:47:52;;;;;;;34.47;28.70;;;;;;;;;;5028592;28;20428;-72
2021/09/15 12:50:23;;;;;;;36.00;29.10;;;;;;;;;;5028909;28;20470;-72
2021/09/15 12:52:51;;;;;;;35.40;30.23;;;;;;;;;;5032720;28;20868;-72
2021/09/15 12:55:21;;;;;;;35.10;30.17;;;;;;;;;;5028066;28;20428;-73
2021/09/15 12:58:01;;;;;;;39.70;29.20;;;;;;;;;;5016357;28;20468;-72
2021/09/15 13:00:30;;;;;;;38.90;29.97;;;;;;;;;;5012849;28;20444;-71
2021/09/15 13:02:58;;;;;;;36.00;30.57;;;;;;;;;;5012744;28;20906;-71
2021/09/15 13:05:24;;;;;;;36.57;29.77;;;;;;;;;;5012720;28;20507;-72
2021/09/15 13:07:52;;;;;;;37.20;29.63;;;;;;;;;;5012356;28;20417;-71
2021/09/15 13:10:18;;;;;;;36.43;28.80;;;;;;;;;;5012925;28;20444;-71
2021/09/15 13:12:44;;;;;;;39.80;29.70;;;;;;;;;;5013790;28;20524;-72
2021/09/15 13:15:10;;;;;;;36.70;29.30;;;;;;;;;;5019485;28;20512;-72
2021/09/15 13:17:37;;;;;;;36.30;29.40;;;;;;;;;;5023165;28;20500;-72
2021/09/15 13:20:03;;;;;;;37.27;29.30;;;;;;;;;;5012626;28;20437;-72
2021/09/15 13:22:29;;;;;;;34.70;29.27;;;;;;;;;;5012359;28;20413;-72
2021/09/15 13:24:55;;;;;;;38.37;30.80;;;;;;;;;;5012438;28;20413;-72
2021/09/15 13:27:22;;;;;;;37.20;31.40;;;;;;;;;;5012151;28;20412;-72
2021/09/15 13:29:48;;;;;;;39.57;29.90;;;;;;;;;;5021364;28;20432;-72
2021/09/15 13:32:14;;;;;;;40.77;30.47;;;;;;;;;;5011610;28;20417;-71
2021/09/15 13:34:41;;;;;;;38.40;30.87;;;;;;;;;;5012347;28;21058;-72
2021/09/15 13:37:08;;;;;;;47.73;36.50;;;;;;;;;;5011365;28;20429;-72
2021/09/15 13:39:34;;;;;;;39.60;32.70;;;;;;;;;;5012330;28;20477;-71
2021/09/15 13:42:01;;;;;;;42.83;32.37;;;;;;;;;;5012000;28;20417;-71
2021/09/15 13:44:27;;;;;;;47.43;33.10;;;;;;;;;;5013889;28;21073;-71
2021/09/15 13:46:53;;;;;;;42.90;34.90;;;;;;;;;;5031194;28;20427;-72
2021/09/15 13:49:20;;;;;;;41.97;31.00;;;;;;;;;;5020474;28;20438;-72
2021/09/15 13:51:47;;;;;;;35.67;30.63;;;;;;;;;;5011643;28;20429;-69
2021/09/15 13:54:13;;;;;;;42.67;32.47;;;;;;;;;;5011799;28;20413;-71
2021/09/15 13:56:39;;;;;;;41.57;31.23;;;;;;;;;;5019020;28;21246;-70
2021/09/15 13:59:05;;;;;;;39.47;32.63;;;;;;;;;;5011486;28;20480;-72
2021/09/15 14:01:32;;;;;;;38.73;30.83;;;;;;;;;;5011400;28;20442;-71
2021/09/15 14:03:58;;;;;;;39.07;31.03;;;;;;;;;;5011471;28;20421;-71
2021/09/15 14:06:24;;;;;;;44.47;33.10;;;;;;;;;;5020875;28;20511;-71
2021/09/15 14:08:50;;;;;;;45.50;31.63;;;;;;;;;;5023303;28;20433;-72
2021/09/15 14:11:16;;;;;;;47.97;34.17;;;;;;;;;;5011380;28;20448;-72
2021/09/15 14:13:42;;;;;;;41.60;33.50;;;;;;;;;;5017940;28;20425;-72
2021/09/15 14:16:12;;;;;;;45.77;34.07;;;;;;;;;;5011494;28;20440;-72
2021/09/15 14:18:38;;;;;;;46.93;33.33;;;;;;;;;;5010807;28;20469;-72
2021/09/15 14:21:04;;;;;;;42.97;33.20;;;;;;;;;;5010950;28;20470;-72
2021/09/15 14:23:30;;;;;;;46.13;32.13;;;;;;;;;;5009649;28;20976;-72
2021/09/15 14:25:56;;;;;;;48.07;34.20;;;;;;;;;;5011096;28;20505;-72
2021/09/15 14:28:22;;;;;;;41.57;32.00;;;;;;;;;;5011170;28;20512;-72
2021/09/15 14:30:48;;;;;;;52.50;33.40;;;;;;;;;;5022996;28;20495;-71
2021/09/15 14:33:15;;;;;;;42.67;32.77;;;;;;;;;;5011011;28;20545;-71